sensor_id;sensor_type;location;lat;lon;timestamp;P1;durP1;ratioP1;P2;durP2;ratioP2
21519;SDS011;10921;53.614;9.882;2023-04-25T00:00:25;46.05;;;34.97;;
21519;SDS011;10921;53.614;9.882;2023-04-25T00:02:52;48.53;;;35.65;;
21519;SDS011;10921;53.614;9.882;2023-04-25T00:05:19;43.28;;;34.83;;
21519;SDS011;10921;53.614;9.882;2023-04-25T00:07:46;49.35;;;34.97;;
21519;SDS011;10921;53.614;9.882;2023-04-25T00:10:12;42.38;;;33.65;;
21519;SDS011;10921;53.614;9.882;2023-04-25T00:12:39;45.00;;;34.33;;
21519;SDS011;10921;53.614;9.882;2023-04-25T00:15:06;53.92;;;34.30;;
21519;SDS011;10921;53.614;9.882;2023-04-25T00:17:33;48.67;;;33.97;;
21519;SDS011;10921;53.614;9.882;2023-04-25T00:20:01;62.67;;;35.05;;
21519;SDS011;10921;53.614;9.882;2023-04-25T00:22:31;49.67;;;33.90;;
21519;SDS011;10921;53.614;9.882;2023-04-25T00:24:57;48.60;;;33.20;;
21519;SDS011;10921;53.614;9.882;2023-04-25T00:27:26;42.75;;;32.75;;
21519;SDS011;10921;53.614;9.882;2023-04-25T00:29:53;47.05;;;32.47;;
21519;SDS011;10921;53.614;9.882;2023-04-25T00:32:19;46.92;;;32.88;;
21519;SDS011;10921;53.614;9.882;2023-04-25T00:34:46;48.60;;;32.22;;
21519;SDS011;10921;53.614;9.882;2023-04-25T00:37:12;48.10;;;32.25;;
21519;SDS011;10921;53.614;9.882;2023-04-25T00:39:39;49.83;;;31.98;;
21519;SDS011;10921;53.614;9.882;2023-04-25T00:42:05;55.05;;;31.35;;
21519;SDS011;10921;53.614;9.882;2023-04-25T00:44:33;52.58;;;30.67;;
21519;SDS011;10921;53.614;9.882;2023-04-25T00:47:01;57.00;;;29.95;;
21519;SDS011;10921;53.614;9.882;2023-04-25T00:49:28;52.38;;;29.27;;
21519;SDS011;10921;53.614;9.882;2023-04-25T00:51:56;49.75;;;29.65;;
21519;SDS011;10921;53.614;9.882;2023-04-25T00:54:22;52.63;;;29.33;;
21519;SDS011;10921;53.614;9.882;2023-04-25T00:56:49;51.60;;;29.42;;
21519;SDS011;10921;53.614;9.882;2023-04-25T00:59:15;48.70;;;28.00;;
21519;SDS011;10921;53.614;9.882;2023-04-25T01:01:44;38.15;;;27.13;;
21519;SDS011;10921;53.614;9.882;2023-04-25T01:04:11;42.83;;;27.92;;
21519;SDS011;10921;53.614;9.882;2023-04-25T01:06:39;39.33;;;26.67;;
21519;SDS011;10921;53.614;9.882;2023-04-25T01:09:06;40.35;;;27.05;;
21519;SDS011;10921;53.614;9.882;2023-04-25T01:11:33;58.08;;;27.42;;
21519;SDS011;10921;53.614;9.882;2023-04-25T01:14:00;36.88;;;25.95;;
21519;SDS011;10921;53.614;9.882;2023-04-25T01:16:28;55.03;;;26.50;;
21519;SDS011;10921;53.614;9.882;2023-04-25T01:18:55;40.38;;;26.02;;
21519;SDS011;10921;53.614;9.882;2023-04-25T01:21:22;51.83;;;25.85;;
21519;SDS011;10921;53.614;9.882;2023-04-25T01:23:48;38.88;;;25.73;;
21519;SDS011;10921;53.614;9.882;2023-04-25T01:26:17;35.92;;;24.52;;
21519;SDS011;10921;53.614;9.882;2023-04-25T01:28:43;52.15;;;26.00;;
21519;SDS011;10921;53.614;9.882;2023-04-25T01:31:11;42.67;;;24.52;;
21519;SDS011;10921;53.614;9.882;2023-04-25T01:33:38;46.45;;;24.85;;
21519;SDS011;10921;53.614;9.882;2023-04-25T01:36:05;56.30;;;25.52;;
21519;SDS011;10921;53.614;9.882;2023-04-25T01:38:32;42.22;;;24.27;;
21519;SDS011;10921;53.614;9.882;2023-04-25T01:40:59;44.30;;;24.35;;
21519;SDS011;10921;53.614;9.882;2023-04-25T01:43:25;52.78;;;24.20;;
21519;SDS011;10921;53.614;9.882;2023-04-25T01:45:52;45.30;;;24.15;;
21519;SDS011;10921;53.614;9.882;2023-04-25T01:48:19;40.80;;;22.92;;
21519;SDS011;10921;53.614;9.882;2023-04-25T01:50:46;37.50;;;22.50;;
21519;SDS011;10921;53.614;9.882;2023-04-25T01:53:12;45.63;;;24.23;;
21519;SDS011;10921;53.614;9.882;2023-04-25T01:55:40;41.40;;;22.05;;
21519;SDS011;10921;53.614;9.882;2023-04-25T01:58:07;35.50;;;22.35;;
21519;SDS011;10921;53.614;9.882;2023-04-25T02:00:35;44.90;;;21.85;;
21519;SDS011;10921;53.614;9.882;2023-04-25T02:03:05;57.88;;;20.90;;
21519;SDS011;10921;53.614;9.882;2023-04-25T02:05:35;38.40;;;20.63;;
21519;SDS011;10921;53.614;9.882;2023-04-25T02:08:04;47.53;;;21.20;;
21519;SDS011;10921;53.614;9.882;2023-04-25T02:10:32;36.97;;;18.98;;
21519;SDS011;10921;53.614;9.882;2023-04-25T02:12:59;35.30;;;19.30;;
21519;SDS011;10921;53.614;9.882;2023-04-25T02:15:25;47.97;;;19.80;;
21519;SDS011;10921;53.614;9.882;2023-04-25T02:17:52;47.25;;;19.52;;
21519;SDS011;10921;53.614;9.882;2023-04-25T02:20:22;61.63;;;20.15;;
21519;SDS011;10921;53.614;9.882;2023-04-25T02:22:49;44.05;;;18.65;;
21519;SDS011;10921;53.614;9.882;2023-04-25T02:25:17;43.35;;;18.25;;
21519;SDS011;10921;53.614;9.882;2023-04-25T02:27:46;30.20;;;17.08;;
21519;SDS011;10921;53.614;9.882;2023-04-25T02:30:14;52.88;;;18.58;;
21519;SDS011;10921;53.614;9.882;2023-04-25T02:32:41;39.42;;;17.50;;
21519;SDS011;10921;53.614;9.882;2023-04-25T02:35:13;36.40;;;18.13;;
21519;SDS011;10921;53.614;9.882;2023-04-25T02:37:40;51.40;;;19.63;;
21519;SDS011;10921;53.614;9.882;2023-04-25T02:40:07;52.85;;;19.27;;
21519;SDS011;10921;53.614;9.882;2023-04-25T02:42:34;46.63;;;17.55;;
21519;SDS011;10921;53.614;9.882;2023-04-25T02:45:01;49.60;;;18.52;;
21519;SDS011;10921;53.614;9.882;2023-04-25T02:47:28;49.00;;;18.23;;
21519;SDS011;10921;53.614;9.882;2023-04-25T02:49:55;34.95;;;16.85;;
21519;SDS011;10921;53.614;9.882;2023-04-25T02:52:21;43.88;;;17.98;;
21519;SDS011;10921;53.614;9.882;2023-04-25T02:54:48;44.50;;;17.23;;
21519;SDS011;10921;53.614;9.882;2023-04-25T02:57:14;27.58;;;15.95;;
21519;SDS011;10921;53.614;9.882;2023-04-25T02:59:41;37.22;;;16.20;;
21519;SDS011;10921;53.614;9.882;2023-04-25T03:02:07;34.28;;;15.85;;
21519;SDS011;10921;53.614;9.882;2023-04-25T03:04:34;43.03;;;15.18;;
21519;SDS011;10921;53.614;9.882;2023-04-25T03:07:01;37.92;;;15.65;;
21519;SDS011;10921;53.614;9.882;2023-04-25T03:09:27;37.08;;;14.85;;
21519;SDS011;10921;53.614;9.882;2023-04-25T03:11:54;37.03;;;15.70;;
21519;SDS011;10921;53.614;9.882;2023-04-25T03:14:20;26.40;;;13.88;;
21519;SDS011;10921;53.614;9.882;2023-04-25T03:16:47;23.17;;;13.23;;
21519;SDS011;10921;53.614;9.882;2023-04-25T03:19:13;36.30;;;15.63;;
21519;SDS011;10921;53.614;9.882;2023-04-25T03:21:42;33.53;;;14.93;;
21519;SDS011;10921;53.614;9.882;2023-04-25T03:24:09;34.75;;;13.93;;
21519;SDS011;10921;53.614;9.882;2023-04-25T03:26:37;38.22;;;13.98;;
21519;SDS011;10921;53.614;9.882;2023-04-25T03:29:03;35.75;;;15.63;;
21519;SDS011;10921;53.614;9.882;2023-04-25T03:31:30;29.63;;;14.65;;
21519;SDS011;10921;53.614;9.882;2023-04-25T03:33:57;35.95;;;15.13;;
21519;SDS011;10921;53.614;9.882;2023-04-25T03:36:23;34.67;;;14.35;;
21519;SDS011;10921;53.614;9.882;2023-04-25T03:38:50;29.27;;;15.23;;
21519;SDS011;10921;53.614;9.882;2023-04-25T03:41:17;37.53;;;15.63;;
21519;SDS011;10921;53.614;9.882;2023-04-25T03:43:43;34.00;;;14.80;;
21519;SDS011;10921;53.614;9.882;2023-04-25T03:46:09;35.35;;;14.65;;
21519;SDS011;10921;53.614;9.882;2023-04-25T03:48:36;34.33;;;14.85;;
21519;SDS011;10921;53.614;9.882;2023-04-25T03:51:03;36.22;;;15.55;;
21519;SDS011;10921;53.614;9.882;2023-04-25T03:53:29;31.67;;;15.05;;
21519;SDS011;10921;53.614;9.882;2023-04-25T03:55:56;32.53;;;14.93;;
21519;SDS011;10921;53.614;9.882;2023-04-25T03:58:22;44.85;;;14.77;;
21519;SDS011;10921;53.614;9.882;2023-04-25T04:00:50;32.90;;;14.38;;
21519;SDS011;10921;53.614;9.882;2023-04-25T04:03:16;38.80;;;16.17;;
21519;SDS011;10921;53.614;9.882;2023-04-25T04:05:43;36.58;;;14.55;;
21519;SDS011;10921;53.614;9.882;2023-04-25T04:08:11;26.50;;;14.75;;
21519;SDS011;10921;53.614;9.882;2023-04-25T04:10:38;29.27;;;14.23;;
21519;SDS011;10921;53.614;9.882;2023-04-25T04:13:04;28.52;;;14.10;;
21519;SDS011;10921;53.614;9.882;2023-04-25T04:15:30;33.75;;;15.32;;
21519;SDS011;10921;53.614;9.882;2023-04-25T04:17:59;36.38;;;14.95;;
21519;SDS011;10921;53.614;9.882;2023-04-25T04:20:29;26.27;;;15.00;;
21519;SDS011;10921;53.614;9.882;2023-04-25T04:22:56;25.83;;;14.98;;
21519;SDS011;10921;53.614;9.882;2023-04-25T04:25:23;24.45;;;13.70;;
21519;SDS011;10921;53.614;9.882;2023-04-25T04:27:50;34.60;;;15.45;;
21519;SDS011;10921;53.614;9.882;2023-04-25T04:30:21;33.45;;;15.63;;
21519;SDS011;10921;53.614;9.882;2023-04-25T04:32:50;25.95;;;14.57;;
21519;SDS011;10921;53.614;9.882;2023-04-25T04:35:17;37.58;;;14.90;;
21519;SDS011;10921;53.614;9.882;2023-04-25T04:37:43;32.75;;;14.90;;
21519;SDS011;10921;53.614;9.882;2023-04-25T04:40:11;32.30;;;13.40;;
21519;SDS011;10921;53.614;9.882;2023-04-25T04:42:42;29.58;;;14.30;;
21519;SDS011;10921;53.614;9.882;2023-04-25T04:45:08;28.30;;;14.02;;
21519;SDS011;10921;53.614;9.882;2023-04-25T04:47:36;22.08;;;14.27;;
21519;SDS011;10921;53.614;9.882;2023-04-25T04:50:03;29.80;;;14.15;;
21519;SDS011;10921;53.614;9.882;2023-04-25T04:52:30;35.72;;;14.95;;
21519;SDS011;10921;53.614;9.882;2023-04-25T04:54:56;25.77;;;14.60;;
21519;SDS011;10921;53.614;9.882;2023-04-25T04:57:23;32.22;;;14.57;;
21519;SDS011;10921;53.614;9.882;2023-04-25T04:59:49;27.70;;;14.25;;
21519;SDS011;10921;53.614;9.882;2023-04-25T05:02:16;26.95;;;13.55;;
21519;SDS011;10921;53.614;9.882;2023-04-25T05:04:43;28.75;;;13.77;;
21519;SDS011;10921;53.614;9.882;2023-04-25T05:07:10;25.20;;;14.32;;
21519;SDS011;10921;53.614;9.882;2023-04-25T05:09:36;27.85;;;14.20;;
21519;SDS011;10921;53.614;9.882;2023-04-25T05:12:03;25.58;;;13.63;;
21519;SDS011;10921;53.614;9.882;2023-04-25T05:14:29;41.88;;;15.70;;
21519;SDS011;10921;53.614;9.882;2023-04-25T05:16:56;31.92;;;14.02;;
21519;SDS011;10921;53.614;9.882;2023-04-25T05:19:22;25.88;;;14.70;;
21519;SDS011;10921;53.614;9.882;2023-04-25T05:21:49;26.15;;;13.40;;
21519;SDS011;10921;53.614;9.882;2023-04-25T05:24:25;30.30;;;14.90;;
21519;SDS011;10921;53.614;9.882;2023-04-25T05:26:55;22.05;;;13.88;;
21519;SDS011;10921;53.614;9.882;2023-04-25T05:29:21;29.42;;;14.70;;
21519;SDS011;10921;53.614;9.882;2023-04-25T05:31:47;31.42;;;15.00;;
21519;SDS011;10921;53.614;9.882;2023-04-25T05:34:14;24.77;;;13.52;;
21519;SDS011;10921;53.614;9.882;2023-04-25T05:36:42;25.27;;;13.98;;
21519;SDS011;10921;53.614;9.882;2023-04-25T05:39:09;23.42;;;15.38;;
21519;SDS011;10921;53.614;9.882;2023-04-25T05:41:36;33.33;;;14.65;;
21519;SDS011;10921;53.614;9.882;2023-04-25T05:44:03;26.92;;;14.32;;
21519;SDS011;10921;53.614;9.882;2023-04-25T05:46:29;22.65;;;14.52;;
21519;SDS011;10921;53.614;9.882;2023-04-25T05:48:56;22.67;;;13.82;;
21519;SDS011;10921;53.614;9.882;2023-04-25T05:51:22;52.90;;;14.02;;
21519;SDS011;10921;53.614;9.882;2023-04-25T05:53:49;31.45;;;14.13;;
21519;SDS011;10921;53.614;9.882;2023-04-25T05:56:16;27.08;;;13.18;;
21519;SDS011;10921;53.614;9.882;2023-04-25T05:58:43;37.63;;;15.75;;
21519;SDS011;10921;53.614;9.882;2023-04-25T06:01:11;30.50;;;14.73;;
21519;SDS011;10921;53.614;9.882;2023-04-25T06:03:38;25.40;;;13.68;;
21519;SDS011;10921;53.614;9.882;2023-04-25T06:06:05;31.95;;;14.10;;
21519;SDS011;10921;53.614;9.882;2023-04-25T06:08:32;21.90;;;13.88;;
21519;SDS011;10921;53.614;9.882;2023-04-25T06:10:58;20.92;;;14.15;;
21519;SDS011;10921;53.614;9.882;2023-04-25T06:13:25;26.88;;;13.68;;
21519;SDS011;10921;53.614;9.882;2023-04-25T06:15:52;19.25;;;13.20;;
21519;SDS011;10921;53.614;9.882;2023-04-25T06:18:18;23.95;;;13.85;;
21519;SDS011;10921;53.614;9.882;2023-04-25T06:20:45;24.80;;;13.60;;
21519;SDS011;10921;53.614;9.882;2023-04-25T06:23:12;24.90;;;14.75;;
21519;SDS011;10921;53.614;9.882;2023-04-25T06:25:39;27.52;;;14.05;;
21519;SDS011;10921;53.614;9.882;2023-04-25T06:28:05;34.90;;;15.85;;
21519;SDS011;10921;53.614;9.882;2023-04-25T06:30:31;33.13;;;15.60;;
21519;SDS011;10921;53.614;9.882;2023-04-25T06:32:58;27.25;;;13.95;;
21519;SDS011;10921;53.614;9.882;2023-04-25T06:35:25;25.83;;;14.30;;
21519;SDS011;10921;53.614;9.882;2023-04-25T06:37:51;29.15;;;14.90;;
21519;SDS011;10921;53.614;9.882;2023-04-25T06:40:18;31.40;;;15.48;;
21519;SDS011;10921;53.614;9.882;2023-04-25T06:42:45;34.72;;;15.85;;
21519;SDS011;10921;53.614;9.882;2023-04-25T06:45:11;23.63;;;15.07;;
21519;SDS011;10921;53.614;9.882;2023-04-25T06:47:38;26.33;;;14.25;;
21519;SDS011;10921;53.614;9.882;2023-04-25T06:50:04;25.90;;;14.38;;
21519;SDS011;10921;53.614;9.882;2023-04-25T06:52:31;30.92;;;13.55;;
21519;SDS011;10921;53.614;9.882;2023-04-25T06:54:58;26.63;;;14.43;;
21519;SDS011;10921;53.614;9.882;2023-04-25T06:57:25;21.42;;;13.48;;
21519;SDS011;10921;53.614;9.882;2023-04-25T06:59:52;25.27;;;14.15;;
21519;SDS011;10921;53.614;9.882;2023-04-25T07:02:19;23.30;;;12.90;;
21519;SDS011;10921;53.614;9.882;2023-04-25T07:04:47;18.42;;;13.70;;
21519;SDS011;10921;53.614;9.882;2023-04-25T07:07:14;25.05;;;13.35;;
21519;SDS011;10921;53.614;9.882;2023-04-25T07:09:40;27.05;;;14.00;;
21519;SDS011;10921;53.614;9.882;2023-04-25T07:12:07;27.17;;;13.30;;
21519;SDS011;10921;53.614;9.882;2023-04-25T07:14:33;21.02;;;12.63;;
21519;SDS011;10921;53.614;9.882;2023-04-25T07:17:00;31.48;;;14.10;;
21519;SDS011;10921;53.614;9.882;2023-04-25T07:19:26;20.30;;;12.93;;
21519;SDS011;10921;53.614;9.882;2023-04-25T07:21:55;19.25;;;13.18;;
21519;SDS011;10921;53.614;9.882;2023-04-25T07:24:22;16.20;;;12.50;;
21519;SDS011;10921;53.614;9.882;2023-04-25T07:26:48;20.30;;;13.10;;
21519;SDS011;10921;53.614;9.882;2023-04-25T07:29:15;23.13;;;13.18;;
21519;SDS011;10921;53.614;9.882;2023-04-25T07:31:42;20.73;;;13.20;;
21519;SDS011;10921;53.614;9.882;2023-04-25T07:34:08;25.70;;;13.65;;
21519;SDS011;10921;53.614;9.882;2023-04-25T07:36:35;21.17;;;12.40;;
21519;SDS011;10921;53.614;9.882;2023-04-25T07:39:01;27.05;;;13.05;;
21519;SDS011;10921;53.614;9.882;2023-04-25T07:41:28;27.73;;;12.95;;
21519;SDS011;10921;53.614;9.882;2023-04-25T07:43:54;23.15;;;13.10;;
21519;SDS011;10921;53.614;9.882;2023-04-25T07:46:21;24.05;;;13.70;;
21519;SDS011;10921;53.614;9.882;2023-04-25T07:48:47;25.63;;;13.10;;
21519;SDS011;10921;53.614;9.882;2023-04-25T07:51:14;23.88;;;12.93;;
21519;SDS011;10921;53.614;9.882;2023-04-25T07:53:41;24.38;;;13.05;;
21519;SDS011;10921;53.614;9.882;2023-04-25T07:56:07;20.73;;;13.05;;
21519;SDS011;10921;53.614;9.882;2023-04-25T07:58:34;18.98;;;12.45;;
21519;SDS011;10921;53.614;9.882;2023-04-25T08:01:00;29.65;;;12.95;;
21519;SDS011;10921;53.614;9.882;2023-04-25T08:03:27;22.80;;;12.82;;
21519;SDS011;10921;53.614;9.882;2023-04-25T08:05:54;23.63;;;12.10;;
21519;SDS011;10921;53.614;9.882;2023-04-25T08:08:21;21.90;;;11.88;;
21519;SDS011;10921;53.614;9.882;2023-04-25T08:10:47;26.83;;;12.43;;
21519;SDS011;10921;53.614;9.882;2023-04-25T08:13:14;20.23;;;12.32;;
21519;SDS011;10921;53.614;9.882;2023-04-25T08:15:41;21.88;;;11.93;;
21519;SDS011;10921;53.614;9.882;2023-04-25T08:18:07;20.67;;;12.55;;
21519;SDS011;10921;53.614;9.882;2023-04-25T08:20:34;16.02;;;12.10;;
21519;SDS011;10921;53.614;9.882;2023-04-25T08:23:01;24.35;;;12.73;;
21519;SDS011;10921;53.614;9.882;2023-04-25T08:25:27;24.92;;;12.23;;
21519;SDS011;10921;53.614;9.882;2023-04-25T08:27:54;20.60;;;12.35;;
21519;SDS011;10921;53.614;9.882;2023-04-25T08:30:22;29.95;;;12.57;;
21519;SDS011;10921;53.614;9.882;2023-04-25T08:32:48;21.15;;;12.55;;
21519;SDS011;10921;53.614;9.882;2023-04-25T08:35:15;19.45;;;11.90;;
21519;SDS011;10921;53.614;9.882;2023-04-25T08:37:43;15.68;;;11.57;;
21519;SDS011;10921;53.614;9.882;2023-04-25T08:40:13;28.48;;;13.70;;
21519;SDS011;10921;53.614;9.882;2023-04-25T08:42:41;21.23;;;11.63;;
21519;SDS011;10921;53.614;9.882;2023-04-25T08:45:09;19.10;;;11.77;;
21519;SDS011;10921;53.614;9.882;2023-04-25T08:47:37;21.98;;;11.90;;
21519;SDS011;10921;53.614;9.882;2023-04-25T08:50:06;23.10;;;14.07;;
21519;SDS011;10921;53.614;9.882;2023-04-25T08:52:35;27.38;;;14.73;;
21519;SDS011;10921;53.614;9.882;2023-04-25T08:55:06;29.17;;;12.43;;
21519;SDS011;10921;53.614;9.882;2023-04-25T08:57:35;19.65;;;12.02;;
21519;SDS011;10921;53.614;9.882;2023-04-25T09:00:03;24.45;;;12.18;;
21519;SDS011;10921;53.614;9.882;2023-04-25T09:02:30;20.90;;;11.52;;
21519;SDS011;10921;53.614;9.882;2023-04-25T09:04:57;14.90;;;11.27;;
21519;SDS011;10921;53.614;9.882;2023-04-25T09:07:23;17.63;;;12.02;;
21519;SDS011;10921;53.614;9.882;2023-04-25T09:09:51;17.00;;;11.30;;
21519;SDS011;10921;53.614;9.882;2023-04-25T09:12:18;12.60;;;11.25;;
21519;SDS011;10921;53.614;9.882;2023-04-25T09:15:05;21.08;;;11.73;;
21519;SDS011;10921;53.614;9.882;2023-04-25T09:17:37;18.73;;;11.18;;
21519;SDS011;10921;53.614;9.882;2023-04-25T09:20:10;18.00;;;11.77;;
21519;SDS011;10921;53.614;9.882;2023-04-25T09:22:38;16.08;;;13.02;;
21519;SDS011;10921;53.614;9.882;2023-04-25T09:25:09;21.80;;;12.07;;
21519;SDS011;10921;53.614;9.882;2023-04-25T09:27:37;18.85;;;11.98;;
21519;SDS011;10921;53.614;9.882;2023-04-25T09:30:30;27.20;;;19.27;;
21519;SDS011;10921;53.614;9.882;2023-04-25T09:33:11;31.48;;;26.02;;
21519;SDS011;10921;53.614;9.882;2023-04-25T09:35:38;37.35;;;27.40;;
21519;SDS011;10921;53.614;9.882;2023-04-25T09:38:12;38.30;;;26.00;;
21519;SDS011;10921;53.614;9.882;2023-04-25T09:40:41;32.28;;;26.20;;
21519;SDS011;10921;53.614;9.882;2023-04-25T09:43:21;41.63;;;28.20;;
21519;SDS011;10921;53.614;9.882;2023-04-25T09:45:49;31.15;;;24.88;;
21519;SDS011;10921;53.614;9.882;2023-04-25T09:48:18;30.38;;;26.98;;
21519;SDS011;10921;53.614;9.882;2023-04-25T09:53:23;21.83;;;18.35;;
21519;SDS011;10921;53.614;9.882;2023-04-25T09:55:50;25.33;;;17.63;;
21519;SDS011;10921;53.614;9.882;2023-04-25T09:58:17;24.70;;;17.10;;
21519;SDS011;10921;53.614;9.882;2023-04-25T10:00:44;17.45;;;14.10;;
21519;SDS011;10921;53.614;9.882;2023-04-25T10:03:10;21.15;;;14.70;;
21519;SDS011;10921;53.614;9.882;2023-04-25T10:05:38;22.02;;;14.60;;
21519;SDS011;10921;53.614;9.882;2023-04-25T10:08:06;18.02;;;13.63;;
21519;SDS011;10921;53.614;9.882;2023-04-25T10:10:33;14.20;;;10.88;;
21519;SDS011;10921;53.614;9.882;2023-04-25T10:13:03;16.90;;;11.13;;
21519;SDS011;10921;53.614;9.882;2023-04-25T10:15:32;23.27;;;11.75;;
21519;SDS011;10921;53.614;9.882;2023-04-25T10:18:05;21.73;;;11.57;;
21519;SDS011;10921;53.614;9.882;2023-04-25T10:20:32;16.63;;;11.48;;
21519;SDS011;10921;53.614;9.882;2023-04-25T10:23:20;16.50;;;13.68;;
21519;SDS011;10921;53.614;9.882;2023-04-25T10:25:46;19.05;;;14.25;;
21519;SDS011;10921;53.614;9.882;2023-04-25T10:28:13;19.17;;;13.57;;
21519;SDS011;10921;53.614;9.882;2023-04-25T10:30:56;19.33;;;13.65;;
21519;SDS011;10921;53.614;9.882;2023-04-25T10:33:37;19.15;;;13.10;;
21519;SDS011;10921;53.614;9.882;2023-04-25T10:36:12;15.40;;;11.32;;
21519;SDS011;10921;53.614;9.882;2023-04-25T10:38:41;17.38;;;11.60;;
21519;SDS011;10921;53.614;9.882;2023-04-25T10:41:09;15.10;;;13.10;;
21519;SDS011;10921;53.614;9.882;2023-04-25T10:48:53;17.13;;;11.30;;
21519;SDS011;10921;53.614;9.882;2023-04-25T10:51:25;15.80;;;12.02;;
21519;SDS011;10921;53.614;9.882;2023-04-25T10:54:01;20.83;;;12.88;;
21519;SDS011;10921;53.614;9.882;2023-04-25T10:56:38;22.75;;;13.98;;
21519;SDS011;10921;53.614;9.882;2023-04-25T10:59:10;15.40;;;12.48;;
21519;SDS011;10921;53.614;9.882;2023-04-25T11:01:46;17.52;;;13.40;;
21519;SDS011;10921;53.614;9.882;2023-04-25T11:04:22;12.88;;;11.52;;
21519;SDS011;10921;53.614;9.882;2023-04-25T11:09:40;14.60;;;11.13;;
21519;SDS011;10921;53.614;9.882;2023-04-25T11:12:07;17.27;;;12.15;;
21519;SDS011;10921;53.614;9.882;2023-04-25T11:14:35;16.05;;;11.70;;
21519;SDS011;10921;53.614;9.882;2023-04-25T11:17:02;17.65;;;11.88;;
21519;SDS011;10921;53.614;9.882;2023-04-25T11:19:29;15.98;;;11.93;;
21519;SDS011;10921;53.614;9.882;2023-04-25T11:21:57;18.67;;;12.10;;
21519;SDS011;10921;53.614;9.882;2023-04-25T11:24:31;13.10;;;11.70;;
21519;SDS011;10921;53.614;9.882;2023-04-25T11:27:02;18.65;;;12.75;;
21519;SDS011;10921;53.614;9.882;2023-04-25T11:29:30;18.80;;;13.43;;
21519;SDS011;10921;53.614;9.882;2023-04-25T11:31:58;20.83;;;12.82;;
21519;SDS011;10921;53.614;9.882;2023-04-25T11:34:25;17.95;;;13.07;;
21519;SDS011;10921;53.614;9.882;2023-04-25T11:36:52;19.38;;;11.80;;
21519;SDS011;10921;53.614;9.882;2023-04-25T11:39:19;17.45;;;14.23;;
21519;SDS011;10921;53.614;9.882;2023-04-25T11:41:46;16.73;;;14.05;;
21519;SDS011;10921;53.614;9.882;2023-04-25T11:44:17;19.30;;;14.43;;
21519;SDS011;10921;53.614;9.882;2023-04-25T11:46:44;15.85;;;12.05;;
21519;SDS011;10921;53.614;9.882;2023-04-25T11:49:11;16.80;;;14.40;;
21519;SDS011;10921;53.614;9.882;2023-04-25T11:51:42;17.55;;;13.90;;
21519;SDS011;10921;53.614;9.882;2023-04-25T11:54:10;18.25;;;14.50;;
21519;SDS011;10921;53.614;9.882;2023-04-25T11:56:41;16.38;;;11.95;;
21519;SDS011;10921;53.614;9.882;2023-04-25T11:59:08;17.10;;;13.05;;
21519;SDS011;10921;53.614;9.882;2023-04-25T12:01:36;14.70;;;13.40;;
21519;SDS011;10921;53.614;9.882;2023-04-25T12:04:11;13.85;;;12.55;;
21519;SDS011;10921;53.614;9.882;2023-04-25T12:06:47;14.30;;;13.10;;
21519;SDS011;10921;53.614;9.882;2023-04-25T12:09:17;14.40;;;13.05;;
21519;SDS011;10921;53.614;9.882;2023-04-25T12:11:54;12.90;;;10.88;;
21519;SDS011;10921;53.614;9.882;2023-04-25T12:14:25;14.05;;;11.43;;
21519;SDS011;10921;53.614;9.882;2023-04-25T12:16:54;17.42;;;13.02;;
21519;SDS011;10921;53.614;9.882;2023-04-25T12:19:24;16.23;;;11.20;;
21519;SDS011;10921;53.614;9.882;2023-04-25T12:21:51;15.63;;;13.27;;
21519;SDS011;10921;53.614;9.882;2023-04-25T12:24:24;14.30;;;13.10;;
21519;SDS011;10921;53.614;9.882;2023-04-25T12:26:59;13.50;;;12.30;;
21519;SDS011;10921;53.614;9.882;2023-04-25T12:29:28;13.80;;;12.50;;
21519;SDS011;10921;53.614;9.882;2023-04-25T12:34:33;14.73;;;13.40;;
21519;SDS011;10921;53.614;9.882;2023-04-25T12:37:01;17.42;;;12.43;;
21519;SDS011;10921;53.614;9.882;2023-04-25T12:39:28;11.93;;;10.77;;
21519;SDS011;10921;53.614;9.882;2023-04-25T12:41:54;12.18;;;10.90;;
21519;SDS011;10921;53.614;9.882;2023-04-25T12:44:21;15.32;;;11.55;;
21519;SDS011;10921;53.614;9.882;2023-04-25T12:46:48;12.05;;;10.85;;
21519;SDS011;10921;53.614;9.882;2023-04-25T12:49:14;13.70;;;10.98;;
21519;SDS011;10921;53.614;9.882;2023-04-25T12:51:44;11.95;;;10.77;;
21519;SDS011;10921;53.614;9.882;2023-04-25T12:54:11;17.20;;;11.00;;
21519;SDS011;10921;53.614;9.882;2023-04-25T12:56:38;13.27;;;11.13;;
21519;SDS011;10921;53.614;9.882;2023-04-25T12:59:04;17.58;;;11.95;;
21519;SDS011;10921;53.614;9.882;2023-04-25T13:01:31;13.68;;;11.80;;
21519;SDS011;10921;53.614;9.882;2023-04-25T13:04:01;17.05;;;11.23;;
21519;SDS011;10921;53.614;9.882;2023-04-25T13:06:28;18.83;;;12.05;;
21519;SDS011;10921;53.614;9.882;2023-04-25T13:08:56;13.82;;;11.80;;
21519;SDS011;10921;53.614;9.882;2023-04-25T13:11:22;20.15;;;18.15;;
21519;SDS011;10921;53.614;9.882;2023-04-25T13:13:49;25.83;;;23.15;;
21519;SDS011;10921;53.614;9.882;2023-04-25T13:16:16;25.48;;;22.83;;
21519;SDS011;10921;53.614;9.882;2023-04-25T13:18:42;25.02;;;22.40;;
21519;SDS011;10921;53.614;9.882;2023-04-25T13:21:09;23.75;;;21.17;;
21519;SDS011;10921;53.614;9.882;2023-04-25T13:23:37;24.48;;;21.88;;
21519;SDS011;10921;53.614;9.882;2023-04-25T13:26:04;26.27;;;22.65;;
21519;SDS011;10921;53.614;9.882;2023-04-25T13:28:30;26.08;;;23.25;;
21519;SDS011;10921;53.614;9.882;2023-04-25T13:30:57;32.75;;;20.67;;
21519;SDS011;10921;53.614;9.882;2023-04-25T13:33:24;22.65;;;18.90;;
21519;SDS011;10921;53.614;9.882;2023-04-25T13:35:50;23.58;;;16.15;;
21519;SDS011;10921;53.614;9.882;2023-04-25T13:38:21;23.90;;;14.23;;
21519;SDS011;10921;53.614;9.882;2023-04-25T13:40:49;25.15;;;22.65;;
21519;SDS011;10921;53.614;9.882;2023-04-25T13:43:18;30.52;;;25.60;;
21519;SDS011;10921;53.614;9.882;2023-04-25T13:45:49;32.15;;;26.48;;
21519;SDS011;10921;53.614;9.882;2023-04-25T13:48:16;30.33;;;25.40;;
21519;SDS011;10921;53.614;9.882;2023-04-25T13:50:43;27.92;;;25.13;;
21519;SDS011;10921;53.614;9.882;2023-04-25T13:53:11;27.60;;;24.90;;
21519;SDS011;10921;53.614;9.882;2023-04-25T13:55:38;27.63;;;24.67;;
21519;SDS011;10921;53.614;9.882;2023-04-25T13:58:04;26.67;;;23.85;;
21519;SDS011;10921;53.614;9.882;2023-04-25T14:00:38;24.83;;;22.40;;
21519;SDS011;10921;53.614;9.882;2023-04-25T14:03:06;25.67;;;18.63;;
21519;SDS011;10921;53.614;9.882;2023-04-25T14:05:36;23.15;;;17.55;;
21519;SDS011;10921;53.614;9.882;2023-04-25T14:08:07;20.42;;;17.58;;
21519;SDS011;10921;53.614;9.882;2023-04-25T14:10:34;21.20;;;16.85;;
21519;SDS011;10921;53.614;9.882;2023-04-25T14:13:02;19.38;;;14.75;;
21519;SDS011;10921;53.614;9.882;2023-04-25T14:15:32;15.48;;;13.55;;
21519;SDS011;10921;53.614;9.882;2023-04-25T14:20:27;44.35;;;24.35;;
21519;SDS011;10921;53.614;9.882;2023-04-25T14:22:54;23.98;;;17.48;;
21519;SDS011;10921;53.614;9.882;2023-04-25T14:25:22;27.17;;;14.75;;
21519;SDS011;10921;53.614;9.882;2023-04-25T14:27:49;22.58;;;17.88;;
21519;SDS011;10921;53.614;9.882;2023-04-25T14:30:19;14.98;;;12.20;;
21519;SDS011;10921;53.614;9.882;2023-04-25T14:32:48;15.05;;;11.13;;
21519;SDS011;10921;53.614;9.882;2023-04-25T14:35:15;13.98;;;11.20;;
21519;SDS011;10921;53.614;9.882;2023-04-25T14:37:42;16.52;;;10.45;;
21519;SDS011;10921;53.614;9.882;2023-04-25T14:40:09;16.58;;;10.95;;